sensor_id;sensor_type;location;lat;lon;timestamp;P1;durP1;ratioP1;P2;durP2;ratioP2
73859;SDS011;62197;51.632;13.700;2023-09-08T00:01:58;8.75;;;5.32;;
73859;SDS011;62197;51.632;13.700;2023-09-08T00:04:23;8.05;;;5.43;;
73859;SDS011;62197;51.632;13.700;2023-09-08T00:06:49;12.10;;;6.68;;
73859;SDS011;62197;51.632;13.700;2023-09-08T00:09:14;9.93;;;5.63;;
73859;SDS011;62197;51.632;13.700;2023-09-08T00:11:39;10.55;;;5.43;;
73859;SDS011;62197;51.632;13.700;2023-09-08T00:14:05;9.52;;;5.85;;
73859;SDS011;62197;51.632;13.700;2023-09-08T00:16:30;9.38;;;5.90;;
73859;SDS011;62197;51.632;13.700;2023-09-08T00:18:56;9.48;;;5.53;;
73859;SDS011;62197;51.632;13.700;2023-09-08T00:21:23;10.55;;;5.38;;
73859;SDS011;62197;51.632;13.700;2023-09-08T00:23:49;8.95;;;5.85;;
73859;SDS011;62197;51.632;13.700;2023-09-08T00:26:14;9.80;;;6.20;;
73859;SDS011;62197;51.632;13.700;2023-09-08T00:28:40;9.52;;;5.60;;
73859;SDS011;62197;51.632;13.700;2023-09-08T00:31:05;7.75;;;5.55;;
73859;SDS011;62197;51.632;13.700;2023-09-08T00:33:30;9.05;;;6.00;;
73859;SDS011;62197;51.632;13.700;2023-09-08T00:35:56;8.25;;;6.13;;
73859;SDS011;62197;51.632;13.700;2023-09-08T00:38:22;7.95;;;5.45;;
73859;SDS011;62197;51.632;13.700;2023-09-08T00:40:48;7.45;;;5.47;;
73859;SDS011;62197;51.632;13.700;2023-09-08T00:43:13;13.40;;;5.88;;
73859;SDS011;62197;51.632;13.700;2023-09-08T00:45:40;7.20;;;5.75;;
73859;SDS011;62197;51.632;13.700;2023-09-08T00:48:07;9.48;;;5.78;;
73859;SDS011;62197;51.632;13.700;2023-09-08T00:50:34;9.57;;;6.00;;
73859;SDS011;62197;51.632;13.700;2023-09-08T00:53:00;8.00;;;5.65;;
73859;SDS011;62197;51.632;13.700;2023-09-08T00:55:26;11.95;;;6.15;;
73859;SDS011;62197;51.632;13.700;2023-09-08T00:57:51;13.90;;;6.13;;
73859;SDS011;62197;51.632;13.700;2023-09-08T01:00:16;9.43;;;6.28;;
73859;SDS011;62197;51.632;13.700;2023-09-08T01:02:42;11.90;;;6.78;;
73859;SDS011;62197;51.632;13.700;2023-09-08T01:05:08;9.52;;;6.15;;
73859;SDS011;62197;51.632;13.700;2023-09-08T01:07:33;9.88;;;6.40;;
73859;SDS011;62197;51.632;13.700;2023-09-08T01:10:00;8.02;;;5.63;;
73859;SDS011;62197;51.632;13.700;2023-09-08T01:12:29;8.90;;;6.38;;
73859;SDS011;62197;51.632;13.700;2023-09-08T01:14:54;8.13;;;6.30;;
73859;SDS011;62197;51.632;13.700;2023-09-08T01:17:20;12.13;;;6.15;;
73859;SDS011;62197;51.632;13.700;2023-09-08T01:19:45;10.50;;;6.80;;
73859;SDS011;62197;51.632;13.700;2023-09-08T01:27:20;9.95;;;7.18;;
73859;SDS011;62197;51.632;13.700;2023-09-08T01:29:48;9.10;;;6.35;;
73859;SDS011;62197;51.632;13.700;2023-09-08T01:32:15;10.75;;;6.22;;
73859;SDS011;62197;51.632;13.700;2023-09-08T01:34:41;9.48;;;5.95;;
73859;SDS011;62197;51.632;13.700;2023-09-08T01:37:06;9.88;;;5.65;;
73859;SDS011;62197;51.632;13.700;2023-09-08T01:39:32;10.15;;;6.07;;
73859;SDS011;62197;51.632;13.700;2023-09-08T01:41:57;9.38;;;6.50;;
73859;SDS011;62197;51.632;13.700;2023-09-08T01:44:22;10.43;;;6.20;;
73859;SDS011;62197;51.632;13.700;2023-09-08T01:46:48;13.68;;;6.70;;
73859;SDS011;62197;51.632;13.700;2023-09-08T01:49:15;9.75;;;7.05;;
73859;SDS011;62197;51.632;13.700;2023-09-08T01:51:41;10.80;;;7.07;;
73859;SDS011;62197;51.632;13.700;2023-09-08T01:54:06;9.93;;;5.82;;
73859;SDS011;62197;51.632;13.700;2023-09-08T01:56:31;10.88;;;6.55;;
73859;SDS011;62197;51.632;13.700;2023-09-08T01:58:57;10.48;;;6.10;;
73859;SDS011;62197;51.632;13.700;2023-09-08T02:01:24;11.82;;;6.70;;
73859;SDS011;62197;51.632;13.700;2023-09-08T02:03:49;10.23;;;5.97;;
73859;SDS011;62197;51.632;13.700;2023-09-08T02:06:14;10.32;;;6.10;;
73859;SDS011;62197;51.632;13.700;2023-09-08T02:08:40;13.30;;;6.72;;
73859;SDS011;62197;51.632;13.700;2023-09-08T02:11:05;9.32;;;6.75;;
73859;SDS011;62197;51.632;13.700;2023-09-08T02:13:30;10.63;;;6.10;;
73859;SDS011;62197;51.632;13.700;2023-09-08T02:15:56;9.40;;;6.40;;
73859;SDS011;62197;51.632;13.700;2023-09-08T02:18:21;11.63;;;6.95;;
73859;SDS011;62197;51.632;13.700;2023-09-08T02:20:46;9.43;;;6.75;;
73859;SDS011;62197;51.632;13.700;2023-09-08T02:23:12;10.82;;;7.25;;
73859;SDS011;62197;51.632;13.700;2023-09-08T02:25:37;11.55;;;7.20;;
73859;SDS011;62197;51.632;13.700;2023-09-08T02:28:02;12.70;;;6.88;;
73859;SDS011;62197;51.632;13.700;2023-09-08T02:30:28;8.95;;;6.65;;
73859;SDS011;62197;51.632;13.700;2023-09-08T02:32:53;10.30;;;6.57;;
73859;SDS011;62197;51.632;13.700;2023-09-08T02:35:20;9.15;;;6.63;;
73859;SDS011;62197;51.632;13.700;2023-09-08T02:37:45;10.48;;;6.53;;
73859;SDS011;62197;51.632;13.700;2023-09-08T02:40:11;10.88;;;6.53;;
73859;SDS011;62197;51.632;13.700;2023-09-08T02:42:36;9.13;;;6.60;;
73859;SDS011;62197;51.632;13.700;2023-09-08T02:45:01;13.02;;;7.03;;
73859;SDS011;62197;51.632;13.700;2023-09-08T02:47:27;9.90;;;6.00;;
73859;SDS011;62197;51.632;13.700;2023-09-08T02:49:52;10.80;;;6.95;;
73859;SDS011;62197;51.632;13.700;2023-09-08T02:52:17;11.90;;;7.13;;
73859;SDS011;62197;51.632;13.700;2023-09-08T02:54:44;12.10;;;6.57;;
73859;SDS011;62197;51.632;13.700;2023-09-08T02:57:10;9.40;;;6.38;;
73859;SDS011;62197;51.632;13.700;2023-09-08T02:59:35;11.48;;;7.28;;
73859;SDS011;62197;51.632;13.700;2023-09-08T03:02:00;13.52;;;7.35;;
73859;SDS011;62197;51.632;13.700;2023-09-08T03:04:26;12.23;;;6.63;;
73859;SDS011;62197;51.632;13.700;2023-09-08T03:06:51;9.98;;;7.07;;
73859;SDS011;62197;51.632;13.700;2023-09-08T03:09:16;9.48;;;7.28;;
73859;SDS011;62197;51.632;13.700;2023-09-08T03:11:42;9.55;;;6.93;;
73859;SDS011;62197;51.632;13.700;2023-09-08T03:14:07;12.10;;;7.38;;
73859;SDS011;62197;51.632;13.700;2023-09-08T03:16:33;17.98;;;7.53;;
73859;SDS011;62197;51.632;13.700;2023-09-08T03:18:58;11.88;;;6.97;;
73859;SDS011;62197;51.632;13.700;2023-09-08T03:21:23;11.65;;;6.90;;
73859;SDS011;62197;51.632;13.700;2023-09-08T03:23:49;10.63;;;6.45;;
73859;SDS011;62197;51.632;13.700;2023-09-08T03:26:14;9.50;;;7.00;;
73859;SDS011;62197;51.632;13.700;2023-09-08T03:28:41;9.63;;;6.50;;
73859;SDS011;62197;51.632;13.700;2023-09-08T03:31:07;11.98;;;7.47;;
73859;SDS011;62197;51.632;13.700;2023-09-08T03:33:32;10.20;;;6.78;;
73859;SDS011;62197;51.632;13.700;2023-09-08T03:35:58;10.90;;;7.30;;
73859;SDS011;62197;51.632;13.700;2023-09-08T03:38:23;10.07;;;6.90;;
73859;SDS011;62197;51.632;13.700;2023-09-08T03:40:49;11.07;;;7.00;;
73859;SDS011;62197;51.632;13.700;2023-09-08T03:43:14;12.20;;;7.78;;
73859;SDS011;62197;51.632;13.700;2023-09-08T03:45:39;13.15;;;7.18;;
73859;SDS011;62197;51.632;13.700;2023-09-08T03:48:05;13.30;;;7.45;;
73859;SDS011;62197;51.632;13.700;2023-09-08T03:50:31;11.48;;;7.22;;
73859;SDS011;62197;51.632;13.700;2023-09-08T03:52:56;11.50;;;7.60;;
73859;SDS011;62197;51.632;13.700;2023-09-08T03:55:22;12.77;;;7.70;;
73859;SDS011;62197;51.632;13.700;2023-09-08T03:57:47;11.18;;;7.35;;
73859;SDS011;62197;51.632;13.700;2023-09-08T04:00:13;10.95;;;7.15;;
73859;SDS011;62197;51.632;13.700;2023-09-08T04:02:44;11.90;;;7.20;;
73859;SDS011;62197;51.632;13.700;2023-09-08T04:05:09;13.13;;;6.95;;
73859;SDS011;62197;51.632;13.700;2023-09-08T04:07:35;13.52;;;7.50;;
73859;SDS011;62197;51.632;13.700;2023-09-08T04:10:01;12.02;;;7.28;;
73859;SDS011;62197;51.632;13.700;2023-09-08T04:12:26;9.75;;;7.05;;
73859;SDS011;62197;51.632;13.700;2023-09-08T04:14:51;12.95;;;7.80;;
73859;SDS011;62197;51.632;13.700;2023-09-08T04:17:17;10.55;;;7.45;;
73859;SDS011;62197;51.632;13.700;2023-09-08T04:19:43;12.68;;;8.48;;
73859;SDS011;62197;51.632;13.700;2023-09-08T04:22:08;11.70;;;7.97;;
73859;SDS011;62197;51.632;13.700;2023-09-08T04:24:35;10.80;;;7.20;;
73859;SDS011;62197;51.632;13.700;2023-09-08T04:27:01;12.30;;;7.78;;
73859;SDS011;62197;51.632;13.700;2023-09-08T04:29:26;10.35;;;7.18;;
73859;SDS011;62197;51.632;13.700;2023-09-08T04:31:51;12.55;;;7.57;;
73859;SDS011;62197;51.632;13.700;2023-09-08T04:34:17;13.00;;;7.40;;
73859;SDS011;62197;51.632;13.700;2023-09-08T04:36:43;13.38;;;8.13;;
73859;SDS011;62197;51.632;13.700;2023-09-08T04:39:08;11.73;;;7.80;;
73859;SDS011;62197;51.632;13.700;2023-09-08T04:41:36;16.77;;;7.90;;
73859;SDS011;62197;51.632;13.700;2023-09-08T04:44:01;11.82;;;7.75;;
73859;SDS011;62197;51.632;13.700;2023-09-08T04:46:26;15.77;;;7.65;;
73859;SDS011;62197;51.632;13.700;2023-09-08T04:48:52;10.48;;;7.65;;
73859;SDS011;62197;51.632;13.700;2023-09-08T04:51:17;10.45;;;7.53;;
73859;SDS011;62197;51.632;13.700;2023-09-08T04:53:42;11.50;;;7.93;;
73859;SDS011;62197;51.632;13.700;2023-09-08T04:56:08;11.50;;;7.60;;
73859;SDS011;62197;51.632;13.700;2023-09-08T04:58:33;13.25;;;7.85;;
73859;SDS011;62197;51.632;13.700;2023-09-08T05:00:58;9.93;;;7.60;;
73859;SDS011;62197;51.632;13.700;2023-09-08T05:03:24;12.40;;;7.00;;
73859;SDS011;62197;51.632;13.700;2023-09-08T05:05:51;11.90;;;7.45;;
73859;SDS011;62197;51.632;13.700;2023-09-08T05:08:16;12.85;;;8.10;;
73859;SDS011;62197;51.632;13.700;2023-09-08T05:10:43;12.60;;;7.15;;
73859;SDS011;62197;51.632;13.700;2023-09-08T05:13:09;10.75;;;7.28;;
73859;SDS011;62197;51.632;13.700;2023-09-08T05:15:34;14.57;;;7.32;;
73859;SDS011;62197;51.632;13.700;2023-09-08T05:17:59;13.85;;;7.95;;
73859;SDS011;62197;51.632;13.700;2023-09-08T05:20:25;10.85;;;6.78;;
73859;SDS011;62197;51.632;13.700;2023-09-08T05:22:50;13.02;;;7.30;;
73859;SDS011;62197;51.632;13.700;2023-09-08T05:25:17;12.75;;;7.53;;
73859;SDS011;62197;51.632;13.700;2023-09-08T05:27:42;13.00;;;7.25;;
73859;SDS011;62197;51.632;13.700;2023-09-08T05:30:07;11.35;;;7.90;;
73859;SDS011;62197;51.632;13.700;2023-09-08T05:32:33;19.02;;;8.65;;
73859;SDS011;62197;51.632;13.700;2023-09-08T05:34:59;12.48;;;7.82;;
73859;SDS011;62197;51.632;13.700;2023-09-08T05:37:24;10.20;;;7.28;;
73859;SDS011;62197;51.632;13.700;2023-09-08T05:39:49;12.35;;;7.90;;
73859;SDS011;62197;51.632;13.700;2023-09-08T05:42:15;9.98;;;6.55;;
73859;SDS011;62197;51.632;13.700;2023-09-08T05:44:40;12.23;;;6.95;;
73859;SDS011;62197;51.632;13.700;2023-09-08T05:47:06;11.65;;;7.00;;
73859;SDS011;62197;51.632;13.700;2023-09-08T05:49:31;13.70;;;7.53;;
73859;SDS011;62197;51.632;13.700;2023-09-08T05:51:56;12.85;;;7.35;;
73859;SDS011;62197;51.632;13.700;2023-09-08T05:54:22;11.70;;;6.93;;
73859;SDS011;62197;51.632;13.700;2023-09-08T05:56:47;13.82;;;7.05;;
73859;SDS011;62197;51.632;13.700;2023-09-08T05:59:12;13.10;;;7.72;;
73859;SDS011;62197;51.632;13.700;2023-09-08T06:01:38;11.45;;;6.72;;
73859;SDS011;62197;51.632;13.700;2023-09-08T06:04:03;13.23;;;7.32;;
73859;SDS011;62197;51.632;13.700;2023-09-08T06:06:28;13.48;;;6.72;;
73859;SDS011;62197;51.632;13.700;2023-09-08T06:08:54;10.50;;;6.53;;
73859;SDS011;62197;51.632;13.700;2023-09-08T06:11:19;10.90;;;7.20;;
73859;SDS011;62197;51.632;13.700;2023-09-08T06:13:44;10.40;;;6.63;;
73859;SDS011;62197;51.632;13.700;2023-09-08T06:16:10;12.18;;;6.28;;
73859;SDS011;62197;51.632;13.700;2023-09-08T06:18:35;10.30;;;6.20;;
73859;SDS011;62197;51.632;13.700;2023-09-08T06:21:08;12.27;;;6.68;;
73859;SDS011;62197;51.632;13.700;2023-09-08T06:23:33;10.48;;;6.97;;
73859;SDS011;62197;51.632;13.700;2023-09-08T06:26:00;9.77;;;6.45;;
73859;SDS011;62197;51.632;13.700;2023-09-08T06:28:28;9.70;;;6.00;;
73859;SDS011;62197;51.632;13.700;2023-09-08T06:30:54;11.63;;;6.43;;
73859;SDS011;62197;51.632;13.700;2023-09-08T06:33:19;8.07;;;5.85;;
73859;SDS011;62197;51.632;13.700;2023-09-08T06:35:45;11.00;;;5.85;;
73859;SDS011;62197;51.632;13.700;2023-09-08T06:38:12;9.20;;;5.97;;
73859;SDS011;62197;51.632;13.700;2023-09-08T06:40:37;10.40;;;6.18;;
73859;SDS011;62197;51.632;13.700;2023-09-08T06:43:02;8.98;;;5.95;;
73859;SDS011;62197;51.632;13.700;2023-09-08T06:45:28;7.35;;;5.03;;
73859;SDS011;62197;51.632;13.700;2023-09-08T06:47:53;16.30;;;6.20;;
73859;SDS011;62197;51.632;13.700;2023-09-08T06:50:20;9.90;;;5.90;;
73859;SDS011;62197;51.632;13.700;2023-09-08T06:52:46;10.18;;;6.20;;
73859;SDS011;62197;51.632;13.700;2023-09-08T06:55:12;7.63;;;5.13;;
73859;SDS011;62197;51.632;13.700;2023-09-08T06:57:38;10.02;;;6.00;;
73859;SDS011;62197;51.632;13.700;2023-09-08T07:00:04;8.43;;;5.35;;
73859;SDS011;62197;51.632;13.700;2023-09-08T07:02:32;8.20;;;4.60;;
73859;SDS011;62197;51.632;13.700;2023-09-08T07:04:57;8.85;;;5.68;;
73859;SDS011;62197;51.632;13.700;2023-09-08T07:07:23;8.13;;;5.47;;
73859;SDS011;62197;51.632;13.700;2023-09-08T07:09:48;8.40;;;5.45;;
73859;SDS011;62197;51.632;13.700;2023-09-08T07:12:13;8.55;;;4.90;;
73859;SDS011;62197;51.632;13.700;2023-09-08T07:14:39;7.20;;;5.13;;
73859;SDS011;62197;51.632;13.700;2023-09-08T07:17:04;8.70;;;5.18;;
73859;SDS011;62197;51.632;13.700;2023-09-08T07:19:29;8.15;;;5.07;;
73859;SDS011;62197;51.632;13.700;2023-09-08T07:21:55;8.30;;;5.03;;
73859;SDS011;62197;51.632;13.700;2023-09-08T07:24:20;6.93;;;4.88;;
73859;SDS011;62197;51.632;13.700;2023-09-08T07:26:46;7.07;;;4.95;;
73859;SDS011;62197;51.632;13.700;2023-09-08T07:29:11;10.90;;;5.20;;
73859;SDS011;62197;51.632;13.700;2023-09-08T07:31:37;6.82;;;4.57;;
73859;SDS011;62197;51.632;13.700;2023-09-08T07:34:03;13.50;;;4.80;;
73859;SDS011;62197;51.632;13.700;2023-09-08T07:36:28;8.55;;;4.82;;
73859;SDS011;62197;51.632;13.700;2023-09-08T07:38:54;8.43;;;4.97;;
73859;SDS011;62197;51.632;13.700;2023-09-08T07:41:19;5.95;;;4.18;;
73859;SDS011;62197;51.632;13.700;2023-09-08T07:43:44;6.38;;;4.20;;
73859;SDS011;62197;51.632;13.700;2023-09-08T07:46:10;7.55;;;4.32;;
73859;SDS011;62197;51.632;13.700;2023-09-08T07:48:36;6.35;;;4.82;;
73859;SDS011;62197;51.632;13.700;2023-09-08T07:51:02;8.00;;;4.10;;
73859;SDS011;62197;51.632;13.700;2023-09-08T07:53:27;7.28;;;4.47;;
73859;SDS011;62197;51.632;13.700;2023-09-08T07:55:52;7.93;;;4.05;;
73859;SDS011;62197;51.632;13.700;2023-09-08T07:58:18;7.97;;;4.00;;
73859;SDS011;62197;51.632;13.700;2023-09-08T08:00:43;6.38;;;4.13;;
73859;SDS011;62197;51.632;13.700;2023-09-08T08:03:09;9.02;;;4.18;;
73859;SDS011;62197;51.632;13.700;2023-09-08T08:05:34;7.10;;;4.32;;
73859;SDS011;62197;51.632;13.700;2023-09-08T08:07:59;6.18;;;4.22;;
73859;SDS011;62197;51.632;13.700;2023-09-08T08:10:25;6.38;;;4.13;;
73859;SDS011;62197;51.632;13.700;2023-09-08T08:12:50;8.02;;;4.10;;
73859;SDS011;62197;51.632;13.700;2023-09-08T08:15:18;4.53;;;3.40;;
73859;SDS011;62197;51.632;13.700;2023-09-08T08:17:45;5.60;;;3.90;;
73859;SDS011;62197;51.632;13.700;2023-09-08T08:20:11;6.25;;;4.18;;
73859;SDS011;62197;51.632;13.700;2023-09-08T08:22:42;9.13;;;4.15;;
73859;SDS011;62197;51.632;13.700;2023-09-08T08:25:07;7.80;;;3.83;;
73859;SDS011;62197;51.632;13.700;2023-09-08T08:27:33;8.73;;;3.95;;
73859;SDS011;62197;51.632;13.700;2023-09-08T08:29:59;6.35;;;3.88;;
73859;SDS011;62197;51.632;13.700;2023-09-08T08:32:26;8.27;;;4.40;;
73859;SDS011;62197;51.632;13.700;2023-09-08T08:34:52;5.32;;;3.50;;
73859;SDS011;62197;51.632;13.700;2023-09-08T08:37:17;9.50;;;3.95;;
73859;SDS011;62197;51.632;13.700;2023-09-08T08:39:43;6.05;;;3.83;;
73859;SDS011;62197;51.632;13.700;2023-09-08T08:42:11;6.97;;;4.07;;
73859;SDS011;62197;51.632;13.700;2023-09-08T08:44:37;5.38;;;3.70;;
73859;SDS011;62197;51.632;13.700;2023-09-08T08:47:03;7.82;;;4.03;;
73859;SDS011;62197;51.632;13.700;2023-09-08T08:49:32;4.75;;;3.50;;
73859;SDS011;62197;51.632;13.700;2023-09-08T08:51:58;5.78;;;3.58;;
73859;SDS011;62197;51.632;13.700;2023-09-08T08:54:25;6.35;;;3.83;;
73859;SDS011;62197;51.632;13.700;2023-09-08T08:56:50;6.47;;;4.05;;
73859;SDS011;62197;51.632;13.700;2023-09-08T08:59:16;6.90;;;3.92;;
73859;SDS011;62197;51.632;13.700;2023-09-08T09:01:42;6.60;;;3.85;;
73859;SDS011;62197;51.632;13.700;2023-09-08T09:04:07;6.75;;;3.92;;
73859;SDS011;62197;51.632;13.700;2023-09-08T09:06:34;8.82;;;4.00;;
73859;SDS011;62197;51.632;13.700;2023-09-08T09:09:00;7.20;;;3.80;;
73859;SDS011;62197;51.632;13.700;2023-09-08T09:11:26;6.13;;;3.53;;
73859;SDS011;62197;51.632;13.700;2023-09-08T09:13:52;6.22;;;3.35;;
73859;SDS011;62197;51.632;13.700;2023-09-08T09:16:17;5.07;;;3.50;;
73859;SDS011;62197;51.632;13.700;2023-09-08T09:18:52;6.63;;;4.18;;
73859;SDS011;62197;51.632;13.700;2023-09-08T09:21:20;6.72;;;3.38;;
73859;SDS011;62197;51.632;13.700;2023-09-08T09:23:45;6.50;;;3.95;;
73859;SDS011;62197;51.632;13.700;2023-09-08T09:26:11;5.45;;;3.38;;
73859;SDS011;62197;51.632;13.700;2023-09-08T09:28:48;6.72;;;4.22;;
73859;SDS011;62197;51.632;13.700;2023-09-08T09:31:13;5.78;;;3.28;;
73859;SDS011;62197;51.632;13.700;2023-09-08T09:33:38;7.18;;;3.45;;
73859;SDS011;62197;51.632;13.700;2023-09-08T09:36:04;5.32;;;3.55;;
73859;SDS011;62197;51.632;13.700;2023-09-08T09:38:30;5.68;;;3.42;;
73859;SDS011;62197;51.632;13.700;2023-09-08T09:40:56;7.50;;;3.72;;
73859;SDS011;62197;51.632;13.700;2023-09-08T09:43:22;7.57;;;3.88;;
73859;SDS011;62197;51.632;13.700;2023-09-08T09:45:48;5.13;;;2.90;;
73859;SDS011;62197;51.632;13.700;2023-09-08T09:48:13;7.22;;;3.60;;
73859;SDS011;62197;51.632;13.700;2023-09-08T09:50:39;6.13;;;4.00;;
73859;SDS011;62197;51.632;13.700;2023-09-08T09:53:14;6.55;;;3.45;;
73859;SDS011;62197;51.632;13.700;2023-09-08T09:55:41;6.95;;;3.58;;
73859;SDS011;62197;51.632;13.700;2023-09-08T09:58:08;6.50;;;3.65;;
73859;SDS011;62197;51.632;13.700;2023-09-08T10:00:35;5.95;;;3.78;;
73859;SDS011;62197;51.632;13.700;2023-09-08T10:03:02;9.07;;;3.40;;
73859;SDS011;62197;51.632;13.700;2023-09-08T10:05:29;6.63;;;3.60;;
73859;SDS011;62197;51.632;13.700;2023-09-08T10:07:54;5.40;;;3.50;;
73859;SDS011;62197;51.632;13.700;2023-09-08T10:10:21;4.97;;;3.55;;
73859;SDS011;62197;51.632;13.700;2023-09-08T10:12:54;6.25;;;3.35;;
73859;SDS011;62197;51.632;13.700;2023-09-08T10:15:22;6.18;;;3.22;;
73859;SDS011;62197;51.632;13.700;2023-09-08T10:17:54;6.40;;;3.30;;
73859;SDS011;62197;51.632;13.700;2023-09-08T10:20:22;7.32;;;3.60;;
73859;SDS011;62197;51.632;13.700;2023-09-08T10:22:50;5.38;;;3.20;;
73859;SDS011;62197;51.632;13.700;2023-09-08T10:25:19;5.82;;;3.45;;
73859;SDS011;62197;51.632;13.700;2023-09-08T10:27:46;8.50;;;3.40;;
73859;SDS011;62197;51.632;13.700;2023-09-08T10:30:12;8.50;;;3.50;;
73859;SDS011;62197;51.632;13.700;2023-09-08T10:32:39;5.68;;;3.22;;
73859;SDS011;62197;51.632;13.700;2023-09-08T10:35:06;5.72;;;3.58;;
73859;SDS011;62197;51.632;13.700;2023-09-08T10:37:33;5.88;;;2.88;;
73859;SDS011;62197;51.632;13.700;2023-09-08T10:42:45;6.10;;;3.50;;
73859;SDS011;62197;51.632;13.700;2023-09-08T10:45:18;6.03;;;2.83;;
73859;SDS011;62197;51.632;13.700;2023-09-08T10:50:15;6.78;;;3.20;;
73859;SDS011;62197;51.632;13.700;2023-09-08T10:52:42;5.70;;;2.85;;
73859;SDS011;62197;51.632;13.700;2023-09-08T10:55:07;4.50;;;3.05;;
73859;SDS011;62197;51.632;13.700;2023-09-08T10:57:33;5.90;;;2.90;;
73859;SDS011;62197;51.632;13.700;2023-09-08T11:00:00;5.10;;;3.22;;
73859;SDS011;62197;51.632;13.700;2023-09-08T11:05:06;4.38;;;2.67;;
73859;SDS011;62197;51.632;13.700;2023-09-08T11:07:34;4.45;;;3.05;;
73859;SDS011;62197;51.632;13.700;2023-09-08T11:10:03;7.47;;;2.80;;
73859;SDS011;62197;51.632;13.700;2023-09-08T11:12:33;5.78;;;3.05;;
73859;SDS011;62197;51.632;13.700;2023-09-08T11:14:59;4.72;;;2.88;;
73859;SDS011;62197;51.632;13.700;2023-09-08T11:17:32;5.97;;;3.42;;
73859;SDS011;62197;51.632;13.700;2023-09-08T11:19:59;4.85;;;2.58;;
73859;SDS011;62197;51.632;13.700;2023-09-08T11:22:26;4.35;;;2.50;;
73859;SDS011;62197;51.632;13.700;2023-09-08T11:24:51;7.28;;;2.92;;
73859;SDS011;62197;51.632;13.700;2023-09-08T11:27:18;7.03;;;3.20;;
73859;SDS011;62197;51.632;13.700;2023-09-08T11:29:45;4.95;;;2.83;;
73859;SDS011;62197;51.632;13.700;2023-09-08T11:32:11;4.03;;;2.65;;
73859;SDS011;62197;51.632;13.700;2023-09-08T11:34:37;4.05;;;2.75;;
73859;SDS011;62197;51.632;13.700;2023-09-08T11:37:12;5.50;;;2.80;;
73859;SDS011;62197;51.632;13.700;2023-09-08T11:39:39;4.13;;;2.60;;
73859;SDS011;62197;51.632;13.700;2023-09-08T11:42:04;3.70;;;2.58;;
73859;SDS011;62197;51.632;13.700;2023-09-08T11:44:31;4.57;;;3.10;;
73859;SDS011;62197;51.632;13.700;2023-09-08T11:46:56;4.20;;;2.60;;
73859;SDS011;62197;51.632;13.700;2023-09-08T11:49:22;5.97;;;2.58;;
73859;SDS011;62197;51.632;13.700;2023-09-08T11:51:48;4.90;;;2.63;;
73859;SDS011;62197;51.632;13.700;2023-09-08T11:54:14;4.00;;;2.75;;
73859;SDS011;62197;51.632;13.700;2023-09-08T11:56:39;4.43;;;2.72;;
73859;SDS011;62197;51.632;13.700;2023-09-08T11:59:05;8.73;;;3.17;;
73859;SDS011;62197;51.632;13.700;2023-09-08T12:01:31;3.67;;;2.60;;
73859;SDS011;62197;51.632;13.700;2023-09-08T12:03:56;4.95;;;2.83;;
73859;SDS011;62197;51.632;13.700;2023-09-08T12:06:27;6.80;;;3.05;;
73859;SDS011;62197;51.632;13.700;2023-09-08T12:08:53;3.28;;;2.40;;
73859;SDS011;62197;51.632;13.700;2023-09-08T12:11:20;3.83;;;2.30;;
73859;SDS011;62197;51.632;13.700;2023-09-08T12:13:45;3.35;;;2.45;;
73859;SDS011;62197;51.632;13.700;2023-09-08T12:16:20;3.85;;;2.65;;
73859;SDS011;62197;51.632;13.700;2023-09-08T12:18:48;3.97;;;2.95;;
73859;SDS011;62197;51.632;13.700;2023-09-08T12:21:14;6.80;;;2.53;;
73859;SDS011;62197;51.632;13.700;2023-09-08T12:23:49;5.68;;;2.90;;
73859;SDS011;62197;51.632;13.700;2023-09-08T12:26:15;5.72;;;2.95;;
73859;SDS011;62197;51.632;13.700;2023-09-08T12:28:41;4.80;;;2.72;;
73859;SDS011;62197;51.632;13.700;2023-09-08T12:31:07;4.45;;;2.95;;
73859;SDS011;62197;51.632;13.700;2023-09-08T12:33:33;4.18;;;2.63;;
73859;SDS011;62197;51.632;13.700;2023-09-08T12:35:59;4.63;;;3.00;;
73859;SDS011;62197;51.632;13.700;2023-09-08T12:38:30;3.10;;;2.63;;
73859;SDS011;62197;51.632;13.700;2023-09-08T12:40:56;4.00;;;2.90;;
73859;SDS011;62197;51.632;13.700;2023-09-08T12:43:22;6.40;;;3.28;;
73859;SDS011;62197;51.632;13.700;2023-09-08T12:45:47;5.82;;;3.17;;
73859;SDS011;62197;51.632;13.700;2023-09-08T12:48:12;4.07;;;3.28;;
73859;SDS011;62197;51.632;13.700;2023-09-08T12:50:38;4.40;;;2.63;;
73859;SDS011;62197;51.632;13.700;2023-09-08T12:53:03;4.63;;;3.08;;
73859;SDS011;62197;51.632;13.700;2023-09-08T12:55:28;4.00;;;3.10;;
73859;SDS011;62197;51.632;13.700;2023-09-08T12:57:54;4.82;;;3.08;;
73859;SDS011;62197;51.632;13.700;2023-09-08T13:00:20;4.60;;;2.85;;
73859;SDS011;62197;51.632;13.700;2023-09-08T13:02:48;4.70;;;2.83;;
73859;SDS011;62197;51.632;13.700;2023-09-08T13:05:13;5.38;;;2.70;;
73859;SDS011;62197;51.632;13.700;2023-09-08T13:07:38;4.13;;;2.53;;
73859;SDS011;62197;51.632;13.700;2023-09-08T13:10:04;3.95;;;2.72;;
73859;SDS011;62197;51.632;13.700;2023-09-08T13:12:30;5.95;;;2.65;;
73859;SDS011;62197;51.632;13.700;2023-09-08T13:14:56;4.70;;;2.60;;
73859;SDS011;62197;51.632;13.700;2023-09-08T13:17:21;5.65;;;2.67;;
73859;SDS011;62197;51.632;13.700;2023-09-08T13:19:46;2.80;;;2.45;;
73859;SDS011;62197;51.632;13.700;2023-09-08T13:22:12;4.68;;;2.83;;
73859;SDS011;62197;51.632;13.700;2023-09-08T13:24:38;3.95;;;2.50;;
73859;SDS011;62197;51.632;13.700;2023-09-08T13:27:04;4.65;;;2.20;;
73859;SDS011;62197;51.632;13.700;2023-09-08T13:29:30;4.63;;;2.28;;
73859;SDS011;62197;51.632;13.700;2023-09-08T13:31:55;4.03;;;2.47;;
73859;SDS011;62197;51.632;13.700;2023-09-08T13:34:22;6.13;;;2.63;;
73859;SDS011;62197;51.632;13.700;2023-09-08T13:36:47;3.85;;;2.42;;
73859;SDS011;62197;51.632;13.700;2023-09-08T13:39:13;5.35;;;2.55;;
73859;SDS011;62197;51.632;13.700;2023-09-08T13:41:45;3.65;;;2.80;;
73859;SDS011;62197;51.632;13.700;2023-09-08T13:44:15;4.25;;;2.58;;
73859;SDS011;62197;51.632;13.700;2023-09-08T13:46:41;4.07;;;2.58;;
73859;SDS011;62197;51.632;13.700;2023-09-08T13:49:06;4.63;;;2.47;;
73859;SDS011;62197;51.632;13.700;2023-09-08T13:51:31;8.38;;;3.00;;
73859;SDS011;62197;51.632;13.700;2023-09-08T13:53:57;5.18;;;2.40;;
73859;SDS011;62197;51.632;13.700;2023-09-08T13:56:22;5.78;;;2.50;;
73859;SDS011;62197;51.632;13.700;2023-09-08T13:58:48;5.28;;;2.50;;
73859;SDS011;62197;51.632;13.700;2023-09-08T14:01:13;6.70;;;2.70;;
73859;SDS011;62197;51.632;13.700;2023-09-08T14:03:38;3.60;;;2.55;;
73859;SDS011;62197;51.632;13.700;2023-09-08T14:06:04;4.38;;;2.35;;
73859;SDS011;62197;51.632;13.700;2023-09-08T14:08:29;4.60;;;2.30;;
73859;SDS011;62197;51.632;13.700;2023-09-08T14:10:54;4.25;;;2.45;;
73859;SDS011;62197;51.632;13.700;2023-09-08T14:13:20;3.50;;;2.30;;
73859;SDS011;62197;51.632;13.700;2023-09-08T14:15:45;3.28;;;2.20;;
73859;SDS011;62197;51.632;13.700;2023-09-08T14:18:10;5.63;;;2.55;;
73859;SDS011;62197;51.632;13.700;2023-09-08T14:20:36;5.05;;;2.72;;
73859;SDS011;62197;51.632;13.700;2023-09-08T14:23:01;4.00;;;2.42;;
73859;SDS011;62197;51.632;13.700;2023-09-08T14:25:27;6.80;;;2.53;;
73859;SDS011;62197;51.632;13.700;2023-09-08T14:27:52;3.42;;;2.63;;
73859;SDS011;62197;51.632;13.700;2023-09-08T14:30:17;4.18;;;2.70;;
73859;SDS011;62197;51.632;13.700;2023-09-08T14:32:43;3.97;;;2.85;;
73859;SDS011;62197;51.632;13.700;2023-09-08T14:35:08;4.90;;;3.03;;
73859;SDS011;62197;51.632;13.700;2023-09-08T14:37:34;4.57;;;2.85;;